Time;durP1;ratioP1;P1;durP2;ratioP2;P2;SDS_P1;SDS_P2;PMS_P1;PMS_P2;Temp;Humidity;BMP_temperature;BMP_pressure;BME280_temperature;BME280_humidity;BME280_pressure;Samples;Min_cycle;Max_cycle;Signal;HPM_P1;HPM_P2
2021/09/14 00:01:49;;;;;;;10.30;7.28;;;;;;;17.28;52.01;100352.91;5014718;28;20030;-64
2021/09/14 00:04:15;;;;;;;12.88;7.75;;;;;;;17.35;51.56;100332.06;5014428;28;20030;-64
2021/09/14 00:06:40;;;;;;;12.68;7.70;;;;;;;17.61;51.39;100374.00;5012052;28;20113;-64
2021/09/14 00:09:07;;;;;;;11.68;7.55;;;;;;;17.58;51.42;100368.75;5013962;28;20028;-64
2021/09/14 00:11:34;;;;;;;12.32;7.55;;;;;;;17.51;51.42;100364.34;4969488;28;20039;-62
2021/09/14 00:14:00;;;;;;;11.35;7.75;;;;;;;17.62;51.18;100368.78;4972418;28;20493;-66
2021/09/14 00:16:26;;;;;;;9.90;7.85;;;;;;;17.82;50.48;100365.41;4972419;28;20047;-66
2021/09/14 00:18:51;;;;;;;11.20;7.95;;;;;;;17.91;50.97;100351.53;4972294;28;20728;-66
2021/09/14 00:21:17;;;;;;;11.68;7.75;;;;;;;18.25;49.61;100362.16;4972367;28;20105;-69
2021/09/14 00:23:43;;;;;;;11.48;7.22;;;;;;;18.51;49.51;100370.06;4972020;28;20497;-69
2021/09/14 00:26:09;;;;;;;15.35;7.60;;;;;;;18.57;49.02;100346.56;4972043;28;20039;-69
2021/09/14 00:28:34;;;;;;;11.30;7.50;;;;;;;18.55;48.43;100369.19;4972471;28;20038;-69
2021/09/14 00:31:00;;;;;;;12.90;7.68;;;;;;;18.42;48.84;100373.53;4972325;28;20043;-69
2021/09/14 00:33:25;;;;;;;12.07;8.10;;;;;;;18.47;49.02;100368.31;4971082;28;20151;-66
2021/09/14 00:35:51;;;;;;;12.80;8.00;;;;;;;18.46;48.00;100319.53;4955821;28;20514;-66
2021/09/14 00:38:16;;;;;;;14.73;7.38;;;;;;;18.87;48.13;100378.84;4970529;28;20043;-67
2021/09/14 00:40:42;;;;;;;11.23;7.57;;;;;;;18.85;47.35;100375.34;4932231;29;20040;-66
2021/09/14 00:43:07;;;;;;;12.20;8.32;;;;;;;18.82;47.79;100377.13;4947567;28;20039;-67
2021/09/14 00:45:33;;;;;;;10.10;7.95;;;;;;;18.57;48.01;100367.47;4953370;29;20482;-65
2021/09/14 00:47:58;;;;;;;12.10;7.70;;;;;;;18.15;48.16;100329.88;4953751;29;20039;-69
2021/09/14 00:50:24;;;;;;;12.93;8.38;;;;;;;18.46;48.56;100368.31;4969636;28;20082;-67
2021/09/14 00:52:51;;;;;;;10.00;7.95;;;;;;;18.43;47.95;100377.03;4972433;28;20046;-68
2021/09/14 00:55:17;;;;;;;11.23;8.10;;;;;;;18.34;48.65;100372.63;4972491;28;20200;-65
2021/09/14 00:57:42;;;;;;;16.50;12.20;;;;;;;17.78;49.06;100350.56;4972463;28;20031;-63
2021/09/14 01:00:08;;;;;;;16.30;9.63;;;;;;;17.82;49.18;100362.81;4972441;28;20426;-68
2021/09/14 01:02:35;;;;;;;17.40;10.00;;;;;;;17.85;49.54;100349.75;4972373;28;20529;-64
2021/09/14 01:05:00;;;;;;;13.07;8.48;;;;;;;17.79;49.59;100362.78;4972571;28;20034;-63
2021/09/14 01:07:26;;;;;;;16.75;9.18;;;;;;;17.97;49.18;100371.59;4972338;28;20199;-65
2021/09/14 01:09:53;;;;;;;13.60;8.52;;;;;;;18.18;49.80;100365.59;4972346;28;20039;-67
2021/09/14 01:12:19;;;;;;;12.02;8.25;;;;;;;18.25;49.15;100367.38;4986114;28;20508;-65
2021/09/14 01:14:52;;;;;;;12.65;7.93;;;;;;;18.26;48.66;100375.22;4995889;28;20041;-64
2021/09/14 01:17:18;;;;;;;13.25;8.48;;;;;;;18.00;49.33;100377.72;5013270;28;20030;-67
2021/09/14 01:19:43;;;;;;;13.43;7.78;;;;;;;17.98;49.62;100370.75;5012989;28;20103;-63
2021/09/14 01:22:10;;;;;;;20.70;9.13;;;;;;;18.10;49.56;100381.25;5011999;28;20036;-64
2021/09/14 01:24:35;;;;;;;11.93;7.35;;;;;;;17.99;52.98;100375.09;5013179;28;20026;-67
2021/09/14 01:27:01;;;;;;;15.63;7.47;;;;;;;17.76;55.64;100379.31;5013305;28;20076;-63
2021/09/14 01:32:24;;;;;;;12.40;6.50;;;;;;;18.02;56.51;100369.88;4971918;28;20482;-65
2021/09/14 01:34:49;;;;;;;17.00;7.68;;;;;;;18.15;55.88;100379.53;4971786;28;20042;-62
2021/09/14 01:37:15;;;;;;;10.55;7.70;;;;;;;18.02;56.85;100369.88;4971929;28;20038;-65
2021/09/14 01:39:40;;;;;;;11.05;7.35;;;;;;;18.06;57.26;100376.88;4958873;28;20035;-63
2021/09/14 01:42:06;;;;;;;18.70;7.15;;;;;;;18.10;56.38;100376.03;4952667;29;20462;-63
2021/09/14 01:44:31;;;;;;;13.57;7.20;;;;;;;18.09;56.34;100371.66;4952592;29;20028;-67
2021/09/14 01:46:57;;;;;;;16.27;7.22;;;;;;;18.05;56.75;100372.53;4952532;29;20414;-63
2021/09/14 01:49:22;;;;;;;11.98;7.28;;;;;;;17.95;57.06;100366.38;4952435;29;20510;-66
2021/09/14 01:51:48;;;;;;;16.30;7.32;;;;;;;17.87;57.15;100370.66;4952588;29;20039;-64
2021/09/14 01:54:13;;;;;;;12.95;7.50;;;;;;;17.90;55.63;100363.69;4952375;28;20042;-64
2021/09/14 01:56:39;;;;;;;10.63;7.10;;;;;;;17.95;54.42;100371.59;4950699;28;20041;-65
2021/09/14 01:59:05;;;;;;;11.80;6.75;;;;;;;17.95;52.92;100375.06;4951970;29;20037;-63
2021/09/14 02:01:35;;;;;;;18.35;7.80;;;;;;;18.05;52.17;100362.06;4951759;29;20594;-63
2021/09/14 02:04:32;;;;;;;17.65;8.13;;;;;;;18.08;50.71;100354.22;4951883;29;20486;-66
2021/09/14 02:39:59;;;;;;;13.85;8.20;;;;;;;17.44;49.97;100381.69;4957242;28;20046;-64
2021/09/14 02:56:46;;;;;;;14.20;8.50;;;;;;;17.14;50.48;100397.09;4913348;29;20055;-64
2021/09/14 02:58:57;;;;;;;15.20;8.73;;;;;;;17.19;50.46;100399.75;4911158;29;20176;-67
2021/09/14 03:01:23;;;;;;;19.55;8.57;;;;;;;17.22;50.10;100399.81;4913427;29;20483;-64
2021/09/14 03:03:49;;;;;;;18.13;8.45;;;;;;;17.19;50.26;100399.75;4913190;29;20495;-64
2021/09/14 03:06:18;;;;;;;19.13;8.85;;;;;;;17.15;50.51;100400.59;4912712;29;20614;-65
2021/09/14 03:08:45;;;;;;;32.03;10.00;;;;;;;17.06;50.80;100390.06;4913271;29;20060;-64
2021/09/14 03:11:12;;;;;;;27.27;10.63;;;;;;;17.16;51.41;100404.97;4913076;29;20044;-63
2021/09/14 03:13:39;;;;;;;31.63;10.18;;;;;;;17.18;51.91;100411.06;4912932;29;20120;-63
2021/09/14 03:16:09;;;;;;;29.42;9.02;;;;;;;17.00;51.36;100379.59;4938906;28;20121;-63
2021/09/14 03:18:35;;;;;;;15.63;8.68;;;;;;;17.16;51.42;100401.47;5011729;28;20420;-67
2021/09/14 03:21:02;;;;;;;15.43;8.13;;;;;;;17.24;51.26;100405.88;5011362;28;20472;-66
2021/09/14 03:23:28;;;;;;;26.23;9.93;;;;;;;17.17;51.01;100409.34;5010474;28;20109;-67
2021/09/14 03:25:53;;;;;;;21.98;8.80;;;;;;;17.11;50.94;100406.66;5011170;28;20032;-66
2021/09/14 03:28:19;;;;;;;15.43;8.80;;;;;;;17.13;50.69;100402.31;5011687;28;20116;-66
2021/09/14 03:30:45;;;;;;;16.50;8.50;;;;;;;17.11;50.71;100409.28;5011749;28;20022;-65
2021/09/14 03:33:10;;;;;;;24.60;9.43;;;;;;;17.07;50.75;100407.47;5011633;28;20030;-64
2021/09/14 03:35:37;;;;;;;12.40;8.68;;;;;;;16.89;51.71;100393.38;4991649;28;20044;-66
2021/09/14 03:38:03;;;;;;;20.02;9.00;;;;;;;16.68;52.33;100369.69;5010218;28;20037;-63
2021/09/14 03:40:28;;;;;;;14.50;8.63;;;;;;;16.74;52.22;100372.38;5010736;28;20034;-63
2021/09/14 03:42:54;;;;;;;16.25;8.35;;;;;;;16.91;52.18;100407.34;5011784;28;20088;-65
2021/09/14 03:45:19;;;;;;;18.35;8.68;;;;;;;16.55;52.36;100329.59;5011530;28;20040;-64
2021/09/14 03:47:45;;;;;;;20.40;8.70;;;;;;;17.08;51.20;100410.09;5011585;28;20028;-64
2021/09/14 03:50:11;;;;;;;13.95;7.75;;;;;;;16.85;51.35;100404.63;5011458;28;20030;-64
2021/09/14 03:52:36;;;;;;;16.42;7.93;;;;;;;16.77;51.34;100425.44;4977129;28;20041;-64
2021/09/14 03:55:03;;;;;;;17.30;8.68;;;;;;;16.65;50.83;100383.59;5011489;28;20030;-64
2021/09/14 03:57:28;;;;;;;21.33;8.70;;;;;;;16.87;50.79;100423.75;5011340;28;20061;-65
2021/09/14 03:59:54;;;;;;;22.92;9.30;;;;;;;16.76;51.08;100428.00;5011236;28;20028;-64
2021/09/14 04:10:07;;;;;;;14.20;8.40;;;;;;;16.30;52.83;100400.56;4950850;29;20208;-64
2021/09/14 04:12:33;;;;;;;19.35;8.35;;;;;;;16.49;53.11;100432.03;4950291;29;20043;-64
2021/09/14 04:14:59;;;;;;;16.77;8.32;;;;;;;16.43;53.99;100445.84;4950721;29;20107;-65
2021/09/14 04:17:24;;;;;;;17.02;9.35;;;;;;;16.27;53.68;100431.75;4950714;28;20070;-65
2021/09/14 04:19:50;;;;;;;17.45;9.00;;;;;;;16.04;54.70;100401.94;4954323;29;20079;-63
2021/09/14 04:22:15;;;;;;;16.75;8.63;;;;;;;16.26;54.28;100434.34;4954249;29;20035;-64
2021/09/14 04:24:41;;;;;;;17.95;8.30;;;;;;;16.26;53.96;100436.97;4954179;29;20035;-65
2021/09/14 04:27:07;;;;;;;15.50;8.60;;;;;;;16.27;53.85;100454.34;4954215;29;20707;-65
2021/09/14 04:29:33;;;;;;;17.60;8.18;;;;;;;16.38;53.18;100454.50;4953647;28;20027;-64
2021/09/14 04:31:59;;;;;;;13.25;7.88;;;;;;;16.43;52.92;100458.03;4954391;29;20043;-68
2021/09/14 04:34:24;;;;;;;18.50;8.65;;;;;;;16.49;52.66;100460.72;4953976;29;20087;-64
2021/09/14 04:36:52;;;;;;;16.35;8.25;;;;;;;16.54;52.54;100458.16;4953790;29;20023;-64
2021/09/14 04:39:18;;;;;;;16.83;7.90;;;;;;;16.35;52.51;100437.09;4953674;29;20031;-64
2021/09/14 04:41:44;;;;;;;16.08;8.25;;;;;;;16.45;52.62;100461.53;4953885;29;20507;-64
2021/09/14 04:44:09;;;;;;;17.58;8.80;;;;;;;16.50;52.63;100462.47;4954071;29;20035;-64
2021/09/14 04:46:34;;;;;;;17.75;8.57;;;;;;;16.59;52.53;100466.91;4971554;28;20034;-65
2021/09/14 04:49:00;;;;;;;21.00;9.15;;;;;;;16.57;52.72;100474.69;5014161;28;20492;-65
2021/09/14 04:51:25;;;;;;;18.70;9.10;;;;;;;16.59;53.51;100459.09;5014334;28;20037;-63
2021/09/14 04:53:51;;;;;;;23.38;9.52;;;;;;;16.62;54.09;100469.53;5014278;28;20033;-63
2021/09/14 04:56:16;;;;;;;18.95;9.02;;;;;;;16.62;53.94;100466.94;5014100;28;20116;-64
2021/09/14 04:58:43;;;;;;;16.30;8.63;;;;;;;16.50;54.48;100468.53;4995549;28;20046;-66
2021/09/14 05:01:08;;;;;;;11.85;8.60;;;;;;;16.49;54.41;100468.53;5014195;28;20030;-63
2021/09/14 05:03:34;;;;;;;16.75;10.05;;;;;;;16.53;53.86;100464.22;4996457;28;20037;-63
2021/09/14 05:05:59;;;;;;;12.75;9.13;;;;;;;16.29;54.06;100442.22;5014068;28;20088;-65
2021/09/14 05:08:25;;;;;;;15.25;9.32;;;;;;;16.36;54.47;100475.28;5013802;28;20412;-66
2021/09/14 05:10:51;;;;;;;17.10;9.48;;;;;;;16.40;54.71;100481.41;5013818;28;20030;-65
2021/09/14 05:13:17;;;;;;;15.10;9.35;;;;;;;16.28;54.76;100477.81;5013531;28;20113;-65
2021/09/14 05:15:43;;;;;;;19.77;9.85;;;;;;;16.29;55.02;100481.31;5013364;28;20168;-65
2021/09/14 05:18:12;;;;;;;14.65;8.98;;;;;;;16.23;55.35;100487.28;5013225;28;20054;-65
2021/09/14 05:20:40;;;;;;;16.08;9.38;;;;;;;16.21;55.07;100475.97;5013395;28;20124;-65
2021/09/14 05:23:15;;;;;;;18.13;11.57;;;;;;;16.42;54.77;100495.34;5013641;28;20038;-65
2021/09/14 05:25:43;;;;;;;69.55;50.95;;;;;;;16.46;54.76;100490.22;5013613;28;20030;-65
2021/09/14 05:28:12;;;;;;;45.13;31.17;;;;;;;16.45;54.35;100492.81;5013909;28;20022;-64
2021/09/14 05:30:38;;;;;;;69.57;46.42;;;;;;;16.55;54.45;100485.97;5013189;28;20042;-65
2021/09/14 05:33:04;;;;;;;70.60;42.55;;;;;;;16.68;54.21;100484.41;5013674;28;20028;-65
2021/09/14 05:35:48;;;;;;;38.78;22.25;;;;;;;16.57;54.06;100445.16;4996177;28;20029;-65
2021/09/14 05:38:15;;;;;;;21.88;13.85;;;;;;;16.64;53.79;100450.47;5013434;28;20026;-65
2021/09/14 05:40:42;;;;;;;20.00;11.15;;;;;;;16.92;53.74;100470.78;5012919;28;20038;-65
2021/09/14 05:43:07;;;;;;;31.20;14.93;;;;;;;16.92;53.74;100474.28;5011186;28;20026;-66
2021/09/14 05:45:33;;;;;;;21.55;11.93;;;;;;;17.10;54.00;100497.06;5012880;28;20028;-65
2021/09/14 05:47:59;;;;;;;39.63;22.38;;;;;;;17.21;54.16;100494.59;5012701;28;20022;-65
2021/09/14 05:50:25;;;;;;;58.10;29.42;;;;;;;17.29;54.47;100492.91;5008659;28;20126;-65
2021/09/14 05:52:51;;;;;;;43.75;25.15;;;;;;;17.40;53.82;100500.84;5012464;28;20489;-65
2021/09/14 05:55:16;;;;;;;34.30;19.67;;;;;;;17.58;53.70;100494.94;5008680;28;20033;-66
2021/09/14 05:57:42;;;;;;;21.95;13.20;;;;;;;17.65;53.30;100493.22;5008038;28;20099;-66
2021/09/14 06:00:08;;;;;;;19.40;11.10;;;;;;;17.67;53.16;100473.25;5012452;28;20033;-63
2021/09/14 06:02:34;;;;;;;21.15;10.75;;;;;;;17.86;53.22;100500.38;5006982;28;20476;-64
2021/09/14 06:04:59;;;;;;;15.73;10.57;;;;;;;17.98;53.06;100490.91;5009021;28;20025;-65
2021/09/14 06:07:24;;;;;;;21.80;11.30;;;;;;;18.09;53.02;100497.06;5012126;28;20399;-65
2021/09/14 06:09:50;;;;;;;16.40;10.65;;;;;;;18.05;52.96;100493.56;5012397;28;20021;-65
2021/09/14 06:12:16;;;;;;;17.00;10.13;;;;;;;18.19;53.22;100488.41;5012056;28;20412;-63
2021/09/14 06:14:41;;;;;;;15.57;10.57;;;;;;;18.24;53.26;100497.19;5012106;28;20393;-65
2021/09/14 06:17:06;;;;;;;17.27;9.73;;;;;;;18.38;52.23;100498.97;5010327;28;20049;-67
2021/09/14 06:19:32;;;;;;;16.98;11.23;;;;;;;18.43;52.66;100500.75;5012233;28;20406;-65
2021/09/14 06:21:57;;;;;;;18.38;11.00;;;;;;;18.53;52.19;100506.00;5012637;28;20108;-64
2021/09/14 06:24:23;;;;;;;18.48;10.68;;;;;;;18.56;52.70;100504.28;5012428;28;20036;-65
2021/09/14 06:26:48;;;;;;;17.13;10.07;;;;;;;18.65;52.59;100513.91;5012250;28;20030;-65
2021/09/14 06:29:14;;;;;;;15.60;9.98;;;;;;;18.68;53.56;100507.81;5012157;28;20101;-63
2021/09/14 06:31:39;;;;;;;14.23;9.63;;;;;;;18.82;53.26;100516.59;5012021;28;20026;-66
2021/09/14 06:34:05;;;;;;;19.17;12.13;;;;;;;18.87;52.84;100512.25;5011531;28;20393;-69
2021/09/14 06:36:30;;;;;;;21.98;11.50;;;;;;;18.85;53.57;100495.69;5012312;28;20101;-66
2021/09/14 06:38:56;;;;;;;19.30;11.75;;;;;;;19.09;53.29;100517.63;5010081;28;20033;-65
2021/09/14 06:41:22;;;;;;;14.82;9.70;;;;;;;19.22;51.61;100523.75;5008991;28;20187;-67
2021/09/14 06:43:48;;;;;;;13.02;9.43;;;;;;;19.46;51.23;100527.28;5011782;28;20021;-68
2021/09/14 06:46:13;;;;;;;14.75;9.70;;;;;;;19.71;50.98;100520.28;5011797;28;20099;-70
2021/09/14 06:48:39;;;;;;;16.40;9.90;;;;;;;19.81;50.16;100516.81;5011738;28;20036;-65
2021/09/14 06:51:04;;;;;;;14.38;9.57;;;;;;;19.85;50.11;100508.13;5010761;28;20053;-64
2021/09/14 06:53:31;;;;;;;20.63;9.35;;;;;;;20.01;50.11;100524.69;5011313;28;20033;-65
2021/09/14 06:55:57;;;;;;;12.18;8.90;;;;;;;20.02;49.48;100522.94;5011642;28;20030;-68
2021/09/14 06:58:23;;;;;;;15.07;9.02;;;;;;;20.13;48.60;100520.31;5011348;28;20440;-65
2021/09/14 07:00:48;;;;;;;13.52;9.23;;;;;;;20.38;47.54;100528.13;4993262;28;20033;-64
2021/09/14 07:03:14;;;;;;;14.82;8.20;;;;;;;20.50;45.53;100531.56;5011366;28;20022;-64
2021/09/14 07:05:40;;;;;;;13.45;7.93;;;;;;;20.66;45.78;100523.66;5011516;28;20098;-65
2021/09/14 07:08:05;;;;;;;11.85;8.60;;;;;;;20.73;45.10;100517.53;5011516;28;20483;-66
2021/09/14 07:10:31;;;;;;;13.75;9.05;;;;;;;20.83;45.31;100511.34;5011466;28;20120;-65
2021/09/14 07:12:56;;;;;;;12.25;7.90;;;;;;;21.15;44.67;100522.59;5009202;28;20113;-66
2021/09/14 07:15:22;;;;;;;10.98;8.38;;;;;;;21.45;43.41;100516.25;5011172;28;20021;-65
2021/09/14 07:17:47;;;;;;;11.90;8.70;;;;;;;21.60;42.64;100515.28;5011136;28;20037;-65
2021/09/14 07:20:13;;;;;;;13.93;7.80;;;;;;;21.49;46.41;100490.84;5010893;28;20057;-66
2021/09/14 07:22:38;;;;;;;17.13;8.77;;;;;;;21.76;43.90;100523.94;5011089;28;20037;-65
2021/09/14 07:25:05;;;;;;;13.18;7.68;;;;;;;21.94;42.25;100520.28;5011211;28;20030;-64
2021/09/14 07:27:31;;;;;;;13.77;7.70;;;;;;;21.90;42.26;100487.00;5011707;28;20025;-65
2021/09/14 07:29:56;;;;;;;13.70;7.65;;;;;;;22.34;41.69;100529.50;5011078;28;20033;-65
2021/09/14 07:32:21;;;;;;;11.10;8.07;;;;;;;22.53;40.47;100524.06;5010005;28;20183;-64
2021/09/14 07:34:47;;;;;;;11.80;8.30;;;;;;;22.54;40.63;100486.34;5009413;28;20388;-70
2021/09/14 07:37:12;;;;;;;18.83;8.05;;;;;;;22.85;40.54;100501.75;5010145;28;20044;-68
2021/09/14 07:39:38;;;;;;;12.60;8.40;;;;;;;22.83;41.12;100479.84;5010932;28;20022;-65
2021/09/14 07:42:03;;;;;;;13.75;8.30;;;;;;;23.10;39.72;100508.44;5010280;28;20120;-65
2021/09/14 07:44:50;;;;;;;13.25;7.75;;;;;;;23.31;41.31;100530.09;4967730;28;20103;-64
2021/09/14 07:47:16;;;;;;;14.90;7.38;;;;;;;23.35;38.89;100526.53;4969339;28;20046;-66
2021/09/14 07:49:42;;;;;;;12.25;7.57;;;;;;;23.46;40.05;100515.81;4970080;28;20126;-64
2021/09/14 07:52:07;;;;;;;14.77;8.23;;;;;;;23.61;40.68;100522.59;4969787;28;20109;-65
2021/09/14 07:54:33;;;;;;;13.70;7.50;;;;;;;23.66;38.39;100520.75;4973161;28;20066;-66
2021/09/14 07:56:58;;;;;;;12.50;6.93;;;;;;;23.78;37.83;100519.69;4973719;28;20038;-65
2021/09/14 07:59:24;;;;;;;10.50;7.45;;;;;;;23.92;37.32;100521.28;4973497;28;20437;-66
2021/09/14 08:01:49;;;;;;;9.73;7.03;;;;;;;24.10;37.38;100512.16;4973492;28;20030;-65
2021/09/14 08:04:15;;;;;;;11.70;6.72;;;;;;;23.99;36.19;100491.22;4973434;28;20038;-66
2021/09/14 08:06:41;;;;;;;14.63;7.75;;;;;;;24.36;36.15;100522.19;4973505;28;20035;-65
2021/09/14 08:09:07;;;;;;;14.32;7.35;;;;;;;24.38;35.59;100509.84;4970907;28;20034;-65
2021/09/14 08:11:32;;;;;;;12.18;7.88;;;;;;;24.42;35.03;100508.03;4973276;28;20081;-66
2021/09/14 08:13:58;;;;;;;12.55;6.80;;;;;;;24.50;35.00;100514.88;4956842;28;20111;-66
2021/09/14 08:16:23;;;;;;;13.80;8.00;;;;;;;24.41;36.33;100479.91;4969976;28;20080;-66
2021/09/14 08:18:49;;;;;;;12.13;7.07;;;;;;;24.68;33.00;100503.09;5014527;28;20085;-66
2021/09/14 08:21:14;;;;;;;10.80;6.50;;;;;;;24.59;35.01;100482.16;5014661;28;20089;-65
2021/09/14 08:23:40;;;;;;;15.90;7.07;;;;;;;24.65;35.59;100475.91;5014193;28;20026;-65
2021/09/14 08:26:05;;;;;;;10.82;6.65;;;;;;;24.86;32.53;100501.84;5014633;28;20053;-66
2021/09/14 08:28:31;;;;;;;11.30;6.18;;;;;;;25.08;32.33;100505.78;5014212;28;20033;-65
2021/09/14 08:30:56;;;;;;;12.85;6.70;;;;;;;25.20;32.38;100505.50;5013632;28;20049;-67
2021/09/14 08:33:22;;;;;;;11.90;6.80;;;;;;;25.35;32.58;100501.63;5012595;28;20061;-67
2021/09/14 08:35:48;;;;;;;11.43;6.38;;;;;;;25.33;30.89;100469.09;5011258;28;20495;-65
2021/09/14 08:38:13;;;;;;;12.07;6.70;;;;;;;25.63;30.59;100493.03;5011994;28;20615;-68
2021/09/14 08:40:42;;;;;;;11.60;6.50;;;;;;;25.73;29.96;100493.69;5013277;28;20499;-68
2021/09/14 08:43:12;;;;;;;11.47;6.00;;;;;;;25.84;30.73;100489.88;5011967;28;20028;-68
2021/09/14 08:45:38;;;;;;;10.43;5.85;;;;;;;25.90;30.67;100488.81;5013337;28;20026;-64
2021/09/14 08:48:04;;;;;;;10.55;6.47;;;;;;;26.02;31.03;100489.41;5013192;28;20092;-64
2021/09/14 08:50:30;;;;;;;12.68;6.57;;;;;;;26.01;29.56;100485.91;5001769;28;20038;-68
2021/09/14 08:52:55;;;;;;;14.07;6.53;;;;;;;26.15;31.48;100486.41;5013057;28;20109;-65
2021/09/14 08:55:22;;;;;;;9.18;5.80;;;;;;;25.89;28.94;100483.59;5013026;28;20034;-67
2021/09/14 08:57:54;;;;;;;11.30;6.20;;;;;;;26.07;30.63;100480.47;5013840;28;20026;-66
2021/09/14 09:00:37;;;;;;;15.65;6.10;;;;;;;26.24;29.04;100479.13;5014156;28;20025;-65
2021/09/14 09:03:03;;;;;;;13.25;6.97;;;;;;;26.30;28.19;100473.66;5010175;28;20037;-67
2021/09/14 09:05:38;;;;;;;13.50;6.32;;;;;;;26.39;28.41;100452.22;4999312;28;20033;-68
2021/09/14 09:08:19;;;;;;;10.98;5.90;;;;;;;26.68;28.28;100468.16;4997065;28;20033;-66
2021/09/14 09:11:07;;;;;;;18.77;6.70;;;;;;;26.79;27.72;100459.03;4994367;28;20029;-69
2021/09/14 09:13:45;;;;;;;23.50;7.85;;;;;;;26.85;28.94;100441.19;4997555;28;20030;-68
2021/09/14 09:16:25;;;;;;;15.40;7.13;;;;;;;27.08;29.29;100464.31;4994288;28;20053;-66
2021/09/14 09:18:50;;;;;;;19.30;9.90;;;;;;;27.21;29.31;100462.13;4992762;28;20530;-64
2021/09/14 09:21:16;;;;;;;17.90;9.02;;;;;;;27.34;28.03;100462.59;4997821;28;20026;-63
2021/09/14 09:23:43;;;;;;;20.17;7.03;;;;;;;27.37;27.54;100457.19;4936625;29;20139;-63
2021/09/14 09:26:08;;;;;;;15.35;7.10;;;;;;;27.50;28.43;100461.19;4934433;29;20088;-65
2021/09/14 09:28:35;;;;;;;16.40;7.00;;;;;;;27.57;27.23;100456.56;4935610;29;20043;-64
2021/09/14 09:31:08;;;;;;;17.42;7.25;;;;;;;27.59;27.80;100452.94;4933768;29;20032;-65
2021/09/14 09:33:34;;;;;;;14.57;7.43;;;;;;;27.79;27.55;100447.84;4933599;29;20590;-66
2021/09/14 09:36:06;;;;;;;11.85;6.90;;;;;;;27.96;28.13;100450.75;4936790;29;20118;-68
2021/09/14 09:38:57;;;;;;;12.73;7.43;;;;;;;28.03;27.79;100460.25;4941863;29;20051;-67
2021/09/14 09:41:23;;;;;;;9.68;6.88;;;;;;;28.15;26.53;100442.16;4934037;29;20126;-69
2021/09/14 09:43:48;;;;;;;16.98;7.45;;;;;;;28.24;28.61;100449.81;4943866;29;20498;-64
2021/09/14 09:46:22;;;;;;;14.45;6.85;;;;;;;28.33;29.29;100445.94;4942379;29;20027;-71
2021/09/14 09:48:48;;;;;;;14.02;6.80;;;;;;;28.35;27.61;100447.63;4947974;29;20051;-71
2021/09/14 09:51:15;;;;;;;12.77;6.93;;;;;;;28.46;30.43;100441.88;4941041;28;20028;-69
2021/09/14 09:53:41;;;;;;;9.98;7.22;;;;;;;28.35;28.34;100438.78;4937909;28;20032;-67
2021/09/14 09:56:07;;;;;;;14.30;7.18;;;;;;;28.56;27.29;100439.75;4997574;28;20018;-72
2021/09/14 09:58:33;;;;;;;13.05;6.82;;;;;;;28.64;27.99;100421.72;4994511;28;20034;-64
2021/09/14 10:01:28;;;;;;;12.52;7.22;;;;;;;28.85;26.29;100429.81;4994965;28;20484;-68
2021/09/14 10:04:15;;;;;;;12.38;6.82;;;;;;;29.01;25.39;100420.28;4935566;28;20450;-68
2021/09/14 10:06:45;;;;;;;10.27;6.53;;;;;;;29.14;27.73;100423.31;4934091;28;20031;-70
2021/09/14 10:09:11;;;;;;;10.23;6.78;;;;;;;29.25;26.38;100417.53;4936187;28;20213;-69
2021/09/14 10:11:37;;;;;;;14.00;6.85;;;;;;;29.40;26.31;100418.72;4961700;28;20117;-72
2021/09/14 10:14:13;;;;;;;16.80;7.40;;;;;;;29.67;26.22;100418.44;4951455;29;20035;-72
2021/09/14 10:16:45;;;;;;;16.55;6.90;;;;;;;29.66;26.12;100409.63;4951045;28;20030;-70
2021/09/14 10:19:31;;;;;;;15.27;7.40;;;;;;;29.48;27.02;100397.97;4951659;29;20056;-70
2021/09/14 10:22:10;;;;;;;13.88;6.50;;;;;;;29.70;27.53;100413.00;4948128;28;20043;-73
2021/09/14 10:24:37;;;;;;;11.63;6.90;;;;;;;29.78;25.93;100399.34;4956521;28;20089;-66
2021/09/14 10:27:02;;;;;;;12.25;7.10;;;;;;;29.92;24.67;100407.63;4951253;29;20138;-66
2021/09/14 10:29:28;;;;;;;14.20;7.07;;;;;;;30.00;24.46;100407.28;4951479;29;20031;-72
2021/09/14 10:32:18;;;;;;;15.48;7.10;;;;;;;30.09;24.70;100401.53;4954664;28;20411;-69
2021/09/14 10:34:54;;;;;;;12.77;6.68;;;;;;;30.14;24.24;100396.84;4945606;29;20039;-66
2021/09/14 10:37:20;;;;;;;13.13;6.90;;;;;;;30.30;25.08;100390.81;4950976;29;20028;-66
2021/09/14 10:39:46;;;;;;;13.40;7.03;;;;;;;30.08;25.31;100341.22;4952224;28;20033;-66
2021/09/14 10:42:19;;;;;;;11.55;6.32;;;;;;;30.45;24.57;100397.22;5006662;28;20026;-70
2021/09/14 10:44:52;;;;;;;13.65;6.55;;;;;;;30.45;23.75;100395.41;4996882;28;20398;-68
2021/09/14 10:47:20;;;;;;;11.25;6.53;;;;;;;30.10;24.85;100389.94;5003180;28;20026;-73
2021/09/14 10:49:58;;;;;;;10.82;6.80;;;;;;;30.09;26.16;100398.00;5000068;28;20034;-70
2021/09/14 10:52:42;;;;;;;10.67;6.67;;;;;;;30.12;24.69;100392.53;4996891;28;20507;-76
2021/09/14 10:55:12;;;;;;;13.13;6.40;;;;;;;30.15;23.98;100389.75;5003392;28;20269;-73
2021/09/14 10:57:56;;;;;;;11.70;7.07;;;;;;;30.25;23.48;100371.53;5001835;28;20022;-68
2021/09/14 11:00:33;;;;;;;15.13;7.20;;;;;;;30.55;25.26;100382.56;5011666;28;20083;-67
2021/09/14 11:03:06;;;;;;;11.48;6.40;;;;;;;30.62;24.54;100370.66;5011852;28;20022;-68
2021/09/14 11:05:37;;;;;;;12.55;6.40;;;;;;;30.27;23.58;100374.97;5006336;28;20483;-70
2021/09/14 11:08:05;;;;;;;10.52;6.35;;;;;;;30.45;23.77;100378.59;4992343;28;20461;-68
2021/09/14 11:10:38;;;;;;;14.30;6.68;;;;;;;30.52;23.51;100380.06;5012330;28;20033;-67
2021/09/14 11:13:04;;;;;;;12.60;6.82;;;;;;;30.66;22.89;100371.38;5012108;28;20037;-68
2021/09/14 11:15:29;;;;;;;10.30;6.50;;;;;;;30.74;23.70;100339.03;5011906;28;20049;-68
2021/09/14 11:17:55;;;;;;;10.77;6.38;;;;;;;30.99;21.47;100370.66;5011994;28;20492;-68
2021/09/14 11:20:26;;;;;;;10.88;6.90;;;;;;;30.92;24.06;100337.25;5012089;28;20050;-68
2021/09/14 11:22:52;;;;;;;11.07;6.30;;;;;;;30.94;23.32;100314.03;5011892;28;20065;-67
2021/09/14 11:25:20;;;;;;;8.98;6.53;;;;;;;31.14;21.54;100345.03;5012148;28;20100;-68
2021/09/14 11:28:09;;;;;;;13.30;6.72;;;;;;;31.27;22.93;100342.63;4996718;28;20033;-67
2021/09/14 11:30:40;;;;;;;14.88;5.90;;;;;;;31.16;23.16;100331.66;5018474;28;20415;-68
2021/09/14 11:33:06;;;;;;;9.80;5.40;;;;;;;31.39;22.91;100339.31;5018665;28;20115;-68
2021/09/14 11:35:36;;;;;;;8.88;5.78;;;;;;;31.53;20.75;100341.25;5018355;28;20029;-68
2021/09/14 11:38:09;;;;;;;13.02;6.13;;;;;;;31.68;21.00;100338.72;5018592;28;20436;-67
2021/09/14 11:40:44;;;;;;;7.90;5.57;;;;;;;31.58;21.02;100309.84;5018415;28;20062;-68
2021/09/14 11:43:15;;;;;;;8.48;6.30;;;;;;;31.92;21.11;100340.06;5018208;28;20112;-68
2021/09/14 11:45:41;;;;;;;10.77;5.60;;;;;;;32.10;20.77;100346.22;5018411;28;20107;-68
2021/09/14 11:48:16;;;;;;;12.80;5.47;;;;;;;32.25;23.63;100332.97;5018457;28;20476;-66
2021/09/14 11:50:41;;;;;;;10.93;5.60;;;;;;;32.15;22.56;100334.41;5018095;28;20511;-68
2021/09/14 11:53:21;;;;;;;11.95;4.95;;;;;;;31.79;21.85;100336.38;5018176;28;20029;-68
2021/09/14 11:55:50;;;;;;;6.78;4.65;;;;;;;31.28;22.37;100336.34;5018311;28;20447;-68
2021/09/14 11:58:33;;;;;;;8.30;4.90;;;;;;;30.84;22.15;100324.28;5000008;28;20050;-67
2021/09/14 12:01:06;;;;;;;12.30;5.10;;;;;;;30.92;24.33;100323.94;5018142;28;20476;-68
2021/09/14 12:03:39;;;;;;;9.02;4.95;;;;;;;31.05;21.85;100324.16;5018171;28;20061;-67
2021/09/14 12:06:08;;;;;;;8.25;4.90;;;;;;;31.29;22.82;100328.28;5018427;28;20116;-67
2021/09/14 12:08:43;;;;;;;7.85;5.07;;;;;;;31.45;21.17;100314.09;5018402;28;20058;-68
2021/09/14 12:11:09;;;;;;;12.75;5.40;;;;;;;31.56;21.99;100316.22;4983574;28;20037;-66
2021/09/14 12:13:43;;;;;;;6.95;5.25;;;;;;;31.59;21.69;100313.38;5018011;28;20037;-68
2021/09/14 12:16:13;;;;;;;12.85;5.70;;;;;;;31.81;22.97;100314.94;5018112;28;20053;-68
2021/09/14 12:18:42;;;;;;;10.18;6.03;;;;;;;31.50;22.87;100314.72;5018161;28;20045;-68